sensor_id;sensor_type;location;lat;lon;timestamp;temperature;humidity
38436;DHT22;24220;48.168;14.024;2022-09-17T00:01:29;15.40;89.70
38436;DHT22;24220;48.168;14.024;2022-09-17T00:03:59;15.30;89.80
38436;DHT22;24220;48.168;14.024;2022-09-17T00:06:28;15.20;90.00
38436;DHT22;24220;48.168;14.024;2022-09-17T00:08:56;15.20;90.20
38436;DHT22;24220;48.168;14.024;2022-09-17T00:11:29;15.20;90.10
38436;DHT22;24220;48.168;14.024;2022-09-17T00:14:00;15.10;90.20
38436;DHT22;24220;48.168;14.024;2022-09-17T00:16:35;15.10;90.20
38436;DHT22;24220;48.168;14.024;2022-09-17T00:19:08;15.10;90.40
38436;DHT22;24220;48.168;14.024;2022-09-17T00:21:36;15.00;90.40
38436;DHT22;24220;48.168;14.024;2022-09-17T00:24:05;15.00;90.40
38436;DHT22;24220;48.168;14.024;2022-09-17T00:26:33;15.00;90.20
38436;DHT22;24220;48.168;14.024;2022-09-17T00:29:01;15.00;90.10
38436;DHT22;24220;48.168;14.024;2022-09-17T00:31:29;14.90;90.00
38436;DHT22;24220;48.168;14.024;2022-09-17T00:34:00;14.90;89.80
38436;DHT22;24220;48.168;14.024;2022-09-17T00:36:28;14.90;89.80
38436;DHT22;24220;48.168;14.024;2022-09-17T00:38:58;14.80;90.00
38436;DHT22;24220;48.168;14.024;2022-09-17T00:41:31;14.80;90.00
38436;DHT22;24220;48.168;14.024;2022-09-17T00:44:01;14.80;90.10
38436;DHT22;24220;48.168;14.024;2022-09-17T00:46:48;14.80;90.10
38436;DHT22;24220;48.168;14.024;2022-09-17T00:49:17;14.80;90.00
38436;DHT22;24220;48.168;14.024;2022-09-17T00:51:53;14.80;90.00
38436;DHT22;24220;48.168;14.024;2022-09-17T00:54:29;14.80;90.00
38436;DHT22;24220;48.168;14.024;2022-09-17T00:57:00;14.70;90.00
38436;DHT22;24220;48.168;14.024;2022-09-17T00:59:30;14.70;90.00
38436;DHT22;24220;48.168;14.024;2022-09-17T01:01:58;14.70;90.10
38436;DHT22;24220;48.168;14.024;2022-09-17T01:04:26;14.70;90.10
38436;DHT22;24220;48.168;14.024;2022-09-17T01:09:52;14.70;90.10
38436;DHT22;24220;48.168;14.024;2022-09-17T01:12:35;14.70;90.10
38436;DHT22;24220;48.168;14.024;2022-09-17T01:32:44;14.70;89.90
38436;DHT22;24220;48.168;14.024;2022-09-17T01:40:48;14.60;90.00
38436;DHT22;24220;48.168;14.024;2022-09-17T01:43:33;14.60;90.00
38436;DHT22;24220;48.168;14.024;2022-09-17T01:46:10;14.60;90.10
38436;DHT22;24220;48.168;14.024;2022-09-17T01:48:44;14.60;90.10
38436;DHT22;24220;48.168;14.024;2022-09-17T01:51:21;14.60;90.10
38436;DHT22;24220;48.168;14.024;2022-09-17T01:54:06;14.60;90.10
38436;DHT22;24220;48.168;14.024;2022-09-17T01:56:43;14.50;90.10
38436;DHT22;24220;48.168;14.024;2022-09-17T01:59:19;14.50;90.10
38436;DHT22;24220;48.168;14.024;2022-09-17T02:01:52;14.50;90.20
38436;DHT22;24220;48.168;14.024;2022-09-17T02:04:37;14.50;90.20
38436;DHT22;24220;48.168;14.024;2022-09-17T02:07:13;14.50;90.20
38436;DHT22;24220;48.168;14.024;2022-09-17T02:09:47;14.50;90.30
38436;DHT22;24220;48.168;14.024;2022-09-17T02:12:23;14.50;90.20
38436;DHT22;24220;48.168;14.024;2022-09-17T02:14:55;14.50;90.30
38436;DHT22;24220;48.168;14.024;2022-09-17T02:17:53;14.50;90.20
38436;DHT22;24220;48.168;14.024;2022-09-17T02:20:27;14.50;90.10
38436;DHT22;24220;48.168;14.024;2022-09-17T02:22:58;14.50;90.10
38436;DHT22;24220;48.168;14.024;2022-09-17T02:25:59;14.50;90.10
38436;DHT22;24220;48.168;14.024;2022-09-17T02:28:44;14.40;89.80
38436;DHT22;24220;48.168;14.024;2022-09-17T02:31:13;14.40;89.60
38436;DHT22;24220;48.168;14.024;2022-09-17T02:33:46;14.40;89.50
38436;DHT22;24220;48.168;14.024;2022-09-17T02:36:14;14.30;89.30
38436;DHT22;24220;48.168;14.024;2022-09-17T02:38:45;14.30;89.40
38436;DHT22;24220;48.168;14.024;2022-09-17T02:41:25;14.30;89.30
38436;DHT22;24220;48.168;14.024;2022-09-17T02:58:46;14.20;90.00
38436;DHT22;24220;48.168;14.024;2022-09-17T03:01:40;14.20;90.10
38436;DHT22;24220;48.168;14.024;2022-09-17T03:04:10;14.20;90.10
38436;DHT22;24220;48.168;14.024;2022-09-17T03:06:39;14.20;90.30
38436;DHT22;24220;48.168;14.024;2022-09-17T03:09:08;14.20;90.40
38436;DHT22;24220;48.168;14.024;2022-09-17T03:11:38;14.20;90.50
38436;DHT22;24220;48.168;14.024;2022-09-17T03:14:09;14.20;90.50
38436;DHT22;24220;48.168;14.024;2022-09-17T03:16:39;14.20;90.50
38436;DHT22;24220;48.168;14.024;2022-09-17T03:19:06;14.20;90.60
38436;DHT22;24220;48.168;14.024;2022-09-17T03:21:38;14.20;90.60
38436;DHT22;24220;48.168;14.024;2022-09-17T03:24:06;14.20;90.60
38436;DHT22;24220;48.168;14.024;2022-09-17T03:26:34;14.20;90.50
38436;DHT22;24220;48.168;14.024;2022-09-17T03:29:01;14.20;90.50
38436;DHT22;24220;48.168;14.024;2022-09-17T03:31:28;14.20;90.50
38436;DHT22;24220;48.168;14.024;2022-09-17T03:33:58;14.20;90.50
38436;DHT22;24220;48.168;14.024;2022-09-17T03:36:26;14.20;90.50
38436;DHT22;24220;48.168;14.024;2022-09-17T03:38:57;14.20;90.40
38436;DHT22;24220;48.168;14.024;2022-09-17T03:41:25;14.20;90.50
38436;DHT22;24220;48.168;14.024;2022-09-17T03:43:53;14.20;90.60
38436;DHT22;24220;48.168;14.024;2022-09-17T03:46:20;14.30;90.60
38436;DHT22;24220;48.168;14.024;2022-09-17T03:48:47;14.30;90.70
38436;DHT22;24220;48.168;14.024;2022-09-17T03:51:17;14.20;90.70
38436;DHT22;24220;48.168;14.024;2022-09-17T03:53:49;14.20;90.70
38436;DHT22;24220;48.168;14.024;2022-09-17T03:56:19;14.30;90.70
38436;DHT22;24220;48.168;14.024;2022-09-17T03:58:48;14.30;90.60
38436;DHT22;24220;48.168;14.024;2022-09-17T04:01:18;14.30;90.60
38436;DHT22;24220;48.168;14.024;2022-09-17T04:03:45;14.30;90.40
38436;DHT22;24220;48.168;14.024;2022-09-17T04:06:13;14.30;90.50
38436;DHT22;24220;48.168;14.024;2022-09-17T04:08:42;14.30;90.50
38436;DHT22;24220;48.168;14.024;2022-09-17T04:11:09;14.30;90.40
38436;DHT22;24220;48.168;14.024;2022-09-17T04:13:37;14.30;90.40
38436;DHT22;24220;48.168;14.024;2022-09-17T04:16:07;14.30;90.50
38436;DHT22;24220;48.168;14.024;2022-09-17T04:18:37;14.30;90.50
38436;DHT22;24220;48.168;14.024;2022-09-17T04:21:05;14.30;90.40
38436;DHT22;24220;48.168;14.024;2022-09-17T04:23:32;14.30;90.40
38436;DHT22;24220;48.168;14.024;2022-09-17T04:26:02;14.30;90.50
38436;DHT22;24220;48.168;14.024;2022-09-17T04:28:34;14.30;90.50
38436;DHT22;24220;48.168;14.024;2022-09-17T04:31:04;14.30;90.50
38436;DHT22;24220;48.168;14.024;2022-09-17T04:33:31;14.30;90.40
38436;DHT22;24220;48.168;14.024;2022-09-17T04:35:59;14.20;90.40
38436;DHT22;24220;48.168;14.024;2022-09-17T04:38:28;14.30;90.50
38436;DHT22;24220;48.168;14.024;2022-09-17T04:40:56;14.30;90.40
38436;DHT22;24220;48.168;14.024;2022-09-17T04:43:23;14.30;90.40
38436;DHT22;24220;48.168;14.024;2022-09-17T04:45:51;14.30;90.40
38436;DHT22;24220;48.168;14.024;2022-09-17T04:48:18;14.30;90.40
38436;DHT22;24220;48.168;14.024;2022-09-17T04:50:47;14.20;90.20
38436;DHT22;24220;48.168;14.024;2022-09-17T04:53:15;14.20;90.20
38436;DHT22;24220;48.168;14.024;2022-09-17T04:55:44;14.20;90.20
38436;DHT22;24220;48.168;14.024;2022-09-17T04:58:12;14.20;90.30
38436;DHT22;24220;48.168;14.024;2022-09-17T05:00:41;14.30;90.40
38436;DHT22;24220;48.168;14.024;2022-09-17T05:03:09;14.30;90.40
38436;DHT22;24220;48.168;14.024;2022-09-17T05:05:36;14.20;90.30
38436;DHT22;24220;48.168;14.024;2022-09-17T05:08:06;14.20;90.30
38436;DHT22;24220;48.168;14.024;2022-09-17T05:10:36;14.30;90.30
38436;DHT22;24220;48.168;14.024;2022-09-17T05:13:04;14.30;90.30
38436;DHT22;24220;48.168;14.024;2022-09-17T05:15:33;14.30;90.30
38436;DHT22;24220;48.168;14.024;2022-09-17T05:18:03;14.20;90.00
38436;DHT22;24220;48.168;14.024;2022-09-17T05:20:30;14.20;89.30
38436;DHT22;24220;48.168;14.024;2022-09-17T05:22:58;14.20;89.80
38436;DHT22;24220;48.168;14.024;2022-09-17T05:25:25;14.30;90.00
38436;DHT22;24220;48.168;14.024;2022-09-17T05:27:53;14.20;90.00
38436;DHT22;24220;48.168;14.024;2022-09-17T05:30:21;14.20;89.90
38436;DHT22;24220;48.168;14.024;2022-09-17T05:33:00;14.30;89.60
38436;DHT22;24220;48.168;14.024;2022-09-17T05:35:28;14.20;88.60
38436;DHT22;24220;48.168;14.024;2022-09-17T05:37:57;14.20;89.10
38436;DHT22;24220;48.168;14.024;2022-09-17T05:40:24;14.20;88.80
38436;DHT22;24220;48.168;14.024;2022-09-17T05:42:59;14.20;88.70
38436;DHT22;24220;48.168;14.024;2022-09-17T05:45:32;14.20;87.70
38436;DHT22;24220;48.168;14.024;2022-09-17T05:48:01;14.20;87.70
38436;DHT22;24220;48.168;14.024;2022-09-17T05:50:31;14.20;87.50
38436;DHT22;24220;48.168;14.024;2022-09-17T05:53:07;14.20;86.70
38436;DHT22;24220;48.168;14.024;2022-09-17T05:55:35;14.20;86.00
38436;DHT22;24220;48.168;14.024;2022-09-17T05:58:12;14.10;86.70
38436;DHT22;24220;48.168;14.024;2022-09-17T06:00:42;14.10;85.40
38436;DHT22;24220;48.168;14.024;2022-09-17T06:03:11;14.10;85.80
38436;DHT22;24220;48.168;14.024;2022-09-17T06:05:44;14.10;86.30
38436;DHT22;24220;48.168;14.024;2022-09-17T06:08:17;14.10;86.30
38436;DHT22;24220;48.168;14.024;2022-09-17T06:10:47;14.10;86.60
38436;DHT22;24220;48.168;14.024;2022-09-17T06:13:18;14.10;85.80
38436;DHT22;24220;48.168;14.024;2022-09-17T06:15:50;14.10;85.80
38436;DHT22;24220;48.168;14.024;2022-09-17T06:18:21;14.10;85.40
38436;DHT22;24220;48.168;14.024;2022-09-17T06:20:52;14.10;86.00
38436;DHT22;24220;48.168;14.024;2022-09-17T06:23:21;14.10;85.40
38436;DHT22;24220;48.168;14.024;2022-09-17T06:25:56;14.10;85.90
38436;DHT22;24220;48.168;14.024;2022-09-17T06:28:24;14.10;85.40
38436;DHT22;24220;48.168;14.024;2022-09-17T06:31:02;14.20;86.00
38436;DHT22;24220;48.168;14.024;2022-09-17T06:33:34;14.10;84.80
38436;DHT22;24220;48.168;14.024;2022-09-17T06:36:07;14.10;84.40
38436;DHT22;24220;48.168;14.024;2022-09-17T06:38:40;14.20;84.40
38436;DHT22;24220;48.168;14.024;2022-09-17T06:41:12;14.20;84.60
38436;DHT22;24220;48.168;14.024;2022-09-17T06:43:41;14.20;83.50
38436;DHT22;24220;48.168;14.024;2022-09-17T06:46:08;14.20;83.00
38436;DHT22;24220;48.168;14.024;2022-09-17T06:48:39;14.20;83.60
38436;DHT22;24220;48.168;14.024;2022-09-17T06:51:08;14.20;83.50
38436;DHT22;24220;48.168;14.024;2022-09-17T06:53:37;14.20;83.50
38436;DHT22;24220;48.168;14.024;2022-09-17T06:56:06;14.30;83.40
38436;DHT22;24220;48.168;14.024;2022-09-17T06:58:35;14.30;83.20
38436;DHT22;24220;48.168;14.024;2022-09-17T07:01:08;14.30;83.00
38436;DHT22;24220;48.168;14.024;2022-09-17T07:03:36;14.40;82.10
38436;DHT22;24220;48.168;14.024;2022-09-17T07:06:07;14.40;82.30
38436;DHT22;24220;48.168;14.024;2022-09-17T07:08:38;14.40;82.00
38436;DHT22;24220;48.168;14.024;2022-09-17T07:11:06;14.40;81.80
38436;DHT22;24220;48.168;14.024;2022-09-17T07:13:36;14.40;81.00
38436;DHT22;24220;48.168;14.024;2022-09-17T07:16:04;14.40;81.20
38436;DHT22;24220;48.168;14.024;2022-09-17T07:18:32;14.40;81.20
38436;DHT22;24220;48.168;14.024;2022-09-17T07:21:04;14.40;80.90
38436;DHT22;24220;48.168;14.024;2022-09-17T07:23:35;14.50;81.10
38436;DHT22;24220;48.168;14.024;2022-09-17T07:26:07;14.50;80.90
38436;DHT22;24220;48.168;14.024;2022-09-17T07:28:41;14.50;80.50
38436;DHT22;24220;48.168;14.024;2022-09-17T07:31:10;14.50;79.90
38436;DHT22;24220;48.168;14.024;2022-09-17T07:33:42;14.50;80.10
38436;DHT22;24220;48.168;14.024;2022-09-17T07:36:14;14.60;79.40
38436;DHT22;24220;48.168;14.024;2022-09-17T07:38:44;14.50;79.20
38436;DHT22;24220;48.168;14.024;2022-09-17T07:41:15;14.50;79.30
38436;DHT22;24220;48.168;14.024;2022-09-17T07:43:44;14.50;79.40
38436;DHT22;24220;48.168;14.024;2022-09-17T07:46:14;14.60;79.30
38436;DHT22;24220;48.168;14.024;2022-09-17T07:48:42;14.60;78.40
38436;DHT22;24220;48.168;14.024;2022-09-17T07:51:21;14.50;78.50
38436;DHT22;24220;48.168;14.024;2022-09-17T07:53:52;14.50;78.10
38436;DHT22;24220;48.168;14.024;2022-09-17T07:56:21;14.50;78.10
38436;DHT22;24220;48.168;14.024;2022-09-17T07:58:48;14.50;78.70
38436;DHT22;24220;48.168;14.024;2022-09-17T08:01:16;14.50;78.90
38436;DHT22;24220;48.168;14.024;2022-09-17T08:03:51;14.50;78.60
38436;DHT22;24220;48.168;14.024;2022-09-17T08:06:22;14.60;78.40
38436;DHT22;24220;48.168;14.024;2022-09-17T08:08:51;14.60;77.00
38436;DHT22;24220;48.168;14.024;2022-09-17T08:11:24;14.60;77.00
38436;DHT22;24220;48.168;14.024;2022-09-17T08:14:15;14.50;76.10
38436;DHT22;24220;48.168;14.024;2022-09-17T08:16:42;14.60;77.30
38436;DHT22;24220;48.168;14.024;2022-09-17T08:19:12;14.70;77.70
38436;DHT22;24220;48.168;14.024;2022-09-17T08:21:39;14.60;77.90
38436;DHT22;24220;48.168;14.024;2022-09-17T08:24:09;14.60;77.30
38436;DHT22;24220;48.168;14.024;2022-09-17T08:26:41;14.70;77.30
38436;DHT22;24220;48.168;14.024;2022-09-17T08:29:08;14.70;77.00
38436;DHT22;24220;48.168;14.024;2022-09-17T08:31:38;14.70;76.50
38436;DHT22;24220;48.168;14.024;2022-09-17T08:34:07;14.60;74.50
38436;DHT22;24220;48.168;14.024;2022-09-17T08:36:35;14.70;74.50
38436;DHT22;24220;48.168;14.024;2022-09-17T08:39:03;14.70;75.60
38436;DHT22;24220;48.168;14.024;2022-09-17T08:49:31;14.80;75.00
38436;DHT22;24220;48.168;14.024;2022-09-17T09:00:24;15.00;74.30
38436;DHT22;24220;48.168;14.024;2022-09-17T09:03:27;15.00;74.50
38436;DHT22;24220;48.168;14.024;2022-09-17T09:05:59;15.10;73.30
38436;DHT22;24220;48.168;14.024;2022-09-17T09:08:32;15.20;74.70
38436;DHT22;24220;48.168;14.024;2022-09-17T09:11:06;15.20;74.00
38436;DHT22;24220;48.168;14.024;2022-09-17T09:13:43;15.20;74.00
38436;DHT22;24220;48.168;14.024;2022-09-17T09:16:14;15.30;73.10
38436;DHT22;24220;48.168;14.024;2022-09-17T09:18:42;15.30;73.30
38436;DHT22;24220;48.168;14.024;2022-09-17T09:21:29;15.30;73.00
38436;DHT22;24220;48.168;14.024;2022-09-17T09:24:06;15.40;71.80
38436;DHT22;24220;48.168;14.024;2022-09-17T09:26:44;15.30;71.50
38436;DHT22;24220;48.168;14.024;2022-09-17T09:34:49;15.40;71.20
38436;DHT22;24220;48.168;14.024;2022-09-17T09:37:30;15.50;72.90
38436;DHT22;24220;48.168;14.024;2022-09-17T09:42:55;15.50;71.10
38436;DHT22;24220;48.168;14.024;2022-09-17T09:51:46;15.70;71.30
38436;DHT22;24220;48.168;14.024;2022-09-17T09:57:05;15.70;69.40
38436;DHT22;24220;48.168;14.024;2022-09-17T09:59:33;15.70;68.80
38436;DHT22;24220;48.168;14.024;2022-09-17T10:02:04;15.80;70.30
38436;DHT22;24220;48.168;14.024;2022-09-17T10:04:34;15.80;69.50
38436;DHT22;24220;48.168;14.024;2022-09-17T10:07:14;15.90;67.30
38436;DHT22;24220;48.168;14.024;2022-09-17T10:09:46;15.90;68.90
38436;DHT22;24220;48.168;14.024;2022-09-17T10:12:17;15.90;67.30
38436;DHT22;24220;48.168;14.024;2022-09-17T10:14:48;15.90;67.90
38436;DHT22;24220;48.168;14.024;2022-09-17T10:17:25;16.00;68.00
38436;DHT22;24220;48.168;14.024;2022-09-17T10:22:40;16.10;66.30
38436;DHT22;24220;48.168;14.024;2022-09-17T10:27:55;16.10;66.40
38436;DHT22;24220;48.168;14.024;2022-09-17T10:30:25;16.10;66.80
38436;DHT22;24220;48.168;14.024;2022-09-17T10:38:42;16.30;66.40
38436;DHT22;24220;48.168;14.024;2022-09-17T10:41:11;16.30;66.00
38436;DHT22;24220;48.168;14.024;2022-09-17T10:43:39;16.40;66.40
38436;DHT22;24220;48.168;14.024;2022-09-17T10:46:10;16.40;66.70
38436;DHT22;24220;48.168;14.024;2022-09-17T10:48:55;16.40;66.20
38436;DHT22;24220;48.168;14.024;2022-09-17T10:51:26;16.40;65.10
38436;DHT22;24220;48.168;14.024;2022-09-17T10:54:07;16.40;64.80
38436;DHT22;24220;48.168;14.024;2022-09-17T10:56:45;16.30;64.50
38436;DHT22;24220;48.168;14.024;2022-09-17T10:59:25;16.30;64.60
38436;DHT22;24220;48.168;14.024;2022-09-17T11:02:31;16.30;64.80
38436;DHT22;24220;48.168;14.024;2022-09-17T11:05:28;16.30;64.80
38436;DHT22;24220;48.168;14.024;2022-09-17T11:08:15;16.30;65.40
38436;DHT22;24220;48.168;14.024;2022-09-17T11:10:59;16.20;65.60
38436;DHT22;24220;48.168;14.024;2022-09-17T11:13:39;16.20;65.70
38436;DHT22;24220;48.168;14.024;2022-09-17T11:19:44;16.00;68.60
38436;DHT22;24220;48.168;14.024;2022-09-17T11:30:13;15.70;74.10
38436;DHT22;24220;48.168;14.024;2022-09-17T11:38:47;15.30;79.30
38436;DHT22;24220;48.168;14.024;2022-09-17T11:41:40;15.30;79.60
38436;DHT22;24220;48.168;14.024;2022-09-17T11:44:19;15.20;80.10
38436;DHT22;24220;48.168;14.024;2022-09-17T11:49:37;15.10;80.40
38436;DHT22;24220;48.168;14.024;2022-09-17T11:52:19;15.10;80.70
38436;DHT22;24220;48.168;14.024;2022-09-17T11:55:21;15.00;80.80
38436;DHT22;24220;48.168;14.024;2022-09-17T11:57:54;15.00;81.30
38436;DHT22;24220;48.168;14.024;2022-09-17T12:00:24;15.00;82.10
38436;DHT22;24220;48.168;14.024;2022-09-17T12:03:01;14.90;81.50
38436;DHT22;24220;48.168;14.024;2022-09-17T12:05:39;14.90;81.90
38436;DHT22;24220;48.168;14.024;2022-09-17T12:11:09;14.90;81.80
38436;DHT22;24220;48.168;14.024;2022-09-17T12:13:50;14.90;81.80
38436;DHT22;24220;48.168;14.024;2022-09-17T12:16:25;14.90;82.00
38436;DHT22;24220;48.168;14.024;2022-09-17T12:24:22;14.80;82.00
38436;DHT22;24220;48.168;14.024;2022-09-17T12:29:45;14.80;81.90
38436;DHT22;24220;48.168;14.024;2022-09-17T12:46:56;15.20;85.80
38436;DHT22;24220;48.168;14.024;2022-09-17T13:00:35;15.70;76.80
38436;DHT22;24220;48.168;14.024;2022-09-17T13:06:03;15.60;77.10
38436;DHT22;24220;48.168;14.024;2022-09-17T13:11:59;15.40;77.50
38436;DHT22;24220;48.168;14.024;2022-09-17T13:15:27;15.40;77.00
38436;DHT22;24220;48.168;14.024;2022-09-17T13:18:07;15.30;77.40
38436;DHT22;24220;48.168;14.024;2022-09-17T13:24:19;15.10;80.30
38436;DHT22;24220;48.168;14.024;2022-09-17T13:26:51;15.10;80.50
38436;DHT22;24220;48.168;14.024;2022-09-17T13:40:22;14.90;80.50
38436;DHT22;24220;48.168;14.024;2022-09-17T13:42:56;14.80;80.30
38436;DHT22;24220;48.168;14.024;2022-09-17T13:45:25;14.80;80.30
38436;DHT22;24220;48.168;14.024;2022-09-17T13:48:07;14.80;80.00
38436;DHT22;24220;48.168;14.024;2022-09-17T13:50:37;14.80;78.70
38436;DHT22;24220;48.168;14.024;2022-09-17T13:53:06;14.80;79.30
38436;DHT22;24220;48.168;14.024;2022-09-17T13:55:55;14.80;79.50
38436;DHT22;24220;48.168;14.024;2022-09-17T13:58:29;14.80;78.70
38436;DHT22;24220;48.168;14.024;2022-09-17T14:16:31;14.90;77.60
38436;DHT22;24220;48.168;14.024;2022-09-17T14:24:44;15.00;78.70
38436;DHT22;24220;48.168;14.024;2022-09-17T14:30:13;14.90;77.90
38436;DHT22;24220;48.168;14.024;2022-09-17T14:40:42;15.00;75.60
38436;DHT22;24220;48.168;14.024;2022-09-17T14:43:20;15.00;76.30
38436;DHT22;24220;48.168;14.024;2022-09-17T14:45:50;15.00;76.70
38436;DHT22;24220;48.168;14.024;2022-09-17T14:54:13;15.00;76.60
38436;DHT22;24220;48.168;14.024;2022-09-17T15:02:36;15.00;77.50
38436;DHT22;24220;48.168;14.024;2022-09-17T15:05:26;15.10;77.40
38436;DHT22;24220;48.168;14.024;2022-09-17T15:08:12;15.10;77.20
38436;DHT22;24220;48.168;14.024;2022-09-17T15:11:09;15.10;76.40
38436;DHT22;24220;48.168;14.024;2022-09-17T15:18:56;15.20;76.20
38436;DHT22;24220;48.168;14.024;2022-09-17T15:21:49;15.30;76.10
38436;DHT22;24220;48.168;14.024;2022-09-17T15:26:55;15.30;76.00
38436;DHT22;24220;48.168;14.024;2022-09-17T15:29:27;15.30;75.90
38436;DHT22;24220;48.168;14.024;2022-09-17T15:31:57;15.30;75.30
38436;DHT22;24220;48.168;14.024;2022-09-17T15:34:26;15.30;75.20
38436;DHT22;24220;48.168;14.024;2022-09-17T15:39:48;15.30;73.90
38436;DHT22;24220;48.168;14.024;2022-09-17T15:42:25;15.30;72.10
38436;DHT22;24220;48.168;14.024;2022-09-17T15:50:24;15.10;72.90
38436;DHT22;24220;48.168;14.024;2022-09-17T15:55:42;15.10;73.10
38436;DHT22;24220;48.168;14.024;2022-09-17T16:11:26;15.10;73.60
38436;DHT22;24220;48.168;14.024;2022-09-17T16:13:59;15.10;73.80
38436;DHT22;24220;48.168;14.024;2022-09-17T16:16:34;15.00;73.60
38436;DHT22;24220;48.168;14.024;2022-09-17T16:19:03;15.00;73.50
38436;DHT22;24220;48.168;14.024;2022-09-17T16:21:30;15.00;73.70
38436;DHT22;24220;48.168;14.024;2022-09-17T16:23:58;15.00;73.60
38436;DHT22;24220;48.168;14.024;2022-09-17T16:26:30;15.10;73.40
38436;DHT22;24220;48.168;14.024;2022-09-17T16:29:03;15.10;73.30
38436;DHT22;24220;48.168;14.024;2022-09-17T16:31:34;15.10;73.40
38436;DHT22;24220;48.168;14.024;2022-09-17T16:34:03;15.10;73.40
38436;DHT22;24220;48.168;14.024;2022-09-17T16:36:31;15.10;72.70
38436;DHT22;24220;48.168;14.024;2022-09-17T16:38:58;15.10;73.00
38436;DHT22;24220;48.168;14.024;2022-09-17T16:41:25;15.00;71.20
38436;DHT22;24220;48.168;14.024;2022-09-17T16:43:54;14.90;71.90
38436;DHT22;24220;48.168;14.024;2022-09-17T16:46:24;15.00;72.60
38436;DHT22;24220;48.168;14.024;2022-09-17T16:48:56;14.90;73.00
38436;DHT22;24220;48.168;14.024;2022-09-17T16:51:23;14.90;73.30
38436;DHT22;24220;48.168;14.024;2022-09-17T16:53:50;14.90;72.80
38436;DHT22;24220;48.168;14.024;2022-09-17T16:56:20;14.80;73.00
38436;DHT22;24220;48.168;14.024;2022-09-17T16:58:48;14.80;73.20
38436;DHT22;24220;48.168;14.024;2022-09-17T17:01:19;14.80;73.30
38436;DHT22;24220;48.168;14.024;2022-09-17T17:03:50;14.80;73.40
38436;DHT22;24220;48.168;14.024;2022-09-17T17:06:19;14.80;73.30
38436;DHT22;24220;48.168;14.024;2022-09-17T17:08:47;14.80;72.50
38436;DHT22;24220;48.168;14.024;2022-09-17T17:11:15;14.70;71.60
38436;DHT22;24220;48.168;14.024;2022-09-17T17:13:43;14.70;71.90
38436;DHT22;24220;48.168;14.024;2022-09-17T17:16:14;14.60;70.70
38436;DHT22;24220;48.168;14.024;2022-09-17T17:18:43;14.60;69.70
38436;DHT22;24220;48.168;14.024;2022-09-17T17:21:12;14.60;70.20
38436;DHT22;24220;48.168;14.024;2022-09-17T17:23:40;14.50;69.90
38436;DHT22;24220;48.168;14.024;2022-09-17T17:26:09;14.50;70.20
38436;DHT22;24220;48.168;14.024;2022-09-17T17:28:39;14.50;69.40
38436;DHT22;24220;48.168;14.024;2022-09-17T17:31:06;14.40;68.20
38436;DHT22;24220;48.168;14.024;2022-09-17T17:33:34;14.40;69.00
38436;DHT22;24220;48.168;14.024;2022-09-17T17:36:04;14.40;69.10
38436;DHT22;24220;48.168;14.024;2022-09-17T17:38:37;14.30;69.50
38436;DHT22;24220;48.168;14.024;2022-09-17T17:41:07;14.30;69.20
38436;DHT22;24220;48.168;14.024;2022-09-17T17:43:35;14.20;68.80
38436;DHT22;24220;48.168;14.024;2022-09-17T17:46:08;14.20;68.80
38436;DHT22;24220;48.168;14.024;2022-09-17T17:48:35;14.20;68.70
38436;DHT22;24220;48.168;14.024;2022-09-17T17:51:04;14.10;68.50
38436;DHT22;24220;48.168;14.024;2022-09-17T17:53:33;14.10;68.90
38436;DHT22;24220;48.168;14.024;2022-09-17T17:56:05;14.10;69.70
38436;DHT22;24220;48.168;14.024;2022-09-17T17:58:35;14.10;70.00
38436;DHT22;24220;48.168;14.024;2022-09-17T18:01:15;14.00;69.80
38436;DHT22;24220;48.168;14.024;2022-09-17T18:03:43;14.10;70.10
38436;DHT22;24220;48.168;14.024;2022-09-17T18:06:11;14.10;70.30
38436;DHT22;24220;48.168;14.024;2022-09-17T18:08:40;14.00;71.80
38436;DHT22;24220;48.168;14.024;2022-09-17T18:11:09;14.00;75.70
38436;DHT22;24220;48.168;14.024;2022-09-17T18:13:38;14.00;78.20
38436;DHT22;24220;48.168;14.024;2022-09-17T18:16:07;13.90;78.80
38436;DHT22;24220;48.168;14.024;2022-09-17T18:18:40;13.80;79.10
38436;DHT22;24220;48.168;14.024;2022-09-17T18:21:16;13.80;79.40
38436;DHT22;24220;48.168;14.024;2022-09-17T18:23:44;13.70;79.40
38436;DHT22;24220;48.168;14.024;2022-09-17T18:26:14;13.60;79.50
38436;DHT22;24220;48.168;14.024;2022-09-17T18:28:42;13.60;79.80
38436;DHT22;24220;48.168;14.024;2022-09-17T18:31:27;13.50;79.60
38436;DHT22;24220;48.168;14.024;2022-09-17T18:34:03;13.40;79.70
38436;DHT22;24220;48.168;14.024;2022-09-17T18:36:33;13.40;80.20
38436;DHT22;24220;48.168;14.024;2022-09-17T18:39:05;13.30;80.30
38436;DHT22;24220;48.168;14.024;2022-09-17T18:41:52;13.30;80.60
38436;DHT22;24220;48.168;14.024;2022-09-17T18:44:20;13.30;80.10
38436;DHT22;24220;48.168;14.024;2022-09-17T18:46:48;13.20;80.20
38436;DHT22;24220;48.168;14.024;2022-09-17T18:49:17;13.10;80.30
38436;DHT22;24220;48.168;14.024;2022-09-17T18:51:48;13.10;80.30
38436;DHT22;24220;48.168;14.024;2022-09-17T18:54:17;13.00;79.60
38436;DHT22;24220;48.168;14.024;2022-09-17T18:56:44;12.90;80.00
38436;DHT22;24220;48.168;14.024;2022-09-17T18:59:12;12.90;80.20
38436;DHT22;24220;48.168;14.024;2022-09-17T19:01:39;12.80;80.10
38436;DHT22;24220;48.168;14.024;2022-09-17T19:04:09;12.80;80.30
38436;DHT22;24220;48.168;14.024;2022-09-17T19:06:37;12.80;80.30
38436;DHT22;24220;48.168;14.024;2022-09-17T19:09:07;12.70;80.20
38436;DHT22;24220;48.168;14.024;2022-09-17T19:11:35;12.70;80.40
38436;DHT22;24220;48.168;14.024;2022-09-17T19:14:05;12.60;80.60
38436;DHT22;24220;48.168;14.024;2022-09-17T19:16:34;12.60;80.70
38436;DHT22;24220;48.168;14.024;2022-09-17T19:19:02;12.60;80.70
38436;DHT22;24220;48.168;14.024;2022-09-17T19:21:34;12.60;80.70
38436;DHT22;24220;48.168;14.024;2022-09-17T19:24:02;12.50;80.50
38436;DHT22;24220;48.168;14.024;2022-09-17T19:26:32;12.50;80.80
38436;DHT22;24220;48.168;14.024;2022-09-17T19:28:59;12.60;80.90
38436;DHT22;24220;48.168;14.024;2022-09-17T19:31:31;12.60;80.80
38436;DHT22;24220;48.168;14.024;2022-09-17T19:34:01;12.60;80.60
38436;DHT22;24220;48.168;14.024;2022-09-17T19:36:28;12.50;80.90
38436;DHT22;24220;48.168;14.024;2022-09-17T19:38:56;12.60;81.30
38436;DHT22;24220;48.168;14.024;2022-09-17T19:41:24;12.60;81.20
38436;DHT22;24220;48.168;14.024;2022-09-17T19:43:53;12.60;81.10
38436;DHT22;24220;48.168;14.024;2022-09-17T19:46:24;12.60;81.00